Time;durP1;ratioP1;P1;durP2;ratioP2;P2;SDS_P1;SDS_P2;PMS_P1;PMS_P2;Temp;Humidity;BMP_temperature;BMP_pressure;BME280_temperature;BME280_humidity;BME280_pressure;Samples;Min_cycle;Max_cycle;Signal;HPM_P1;HPM_P2
2023/01/04 00:02:13;;;;;;;1.30;1.20;;;;;2.30;97120.00;;;;5035255;28;20251;-68
2023/01/04 00:04:41;;;;;;;1.30;1.20;;;;;2.30;97121.00;;;;5035197;28;20196;-68
2023/01/04 00:07:08;;;;;;;1.60;1.53;;;;;2.30;97120.00;;;;5035154;28;20192;-67
2023/01/04 00:09:35;;;;;;;1.10;1.10;;;;;2.30;97111.00;;;;5035037;28;20303;-67
2023/01/04 00:12:03;;;;;;;1.17;1.17;;;;;2.40;97118.00;;;;5035243;28;20193;-67
2023/01/04 00:14:30;;;;;;;0.77;0.77;;;;;2.40;97113.00;;;;5035259;28;20271;-68
2023/01/04 00:16:59;;;;;;;0.70;0.70;;;;;2.40;97116.00;;;;5035519;28;20268;-68
2023/01/04 00:19:27;;;;;;;0.90;0.90;;;;;2.40;97116.00;;;;5035090;28;20619;-68
2023/01/04 00:21:54;;;;;;;1.27;1.20;;;;;2.40;97121.00;;;;5035113;28;20544;-68
2023/01/04 00:24:22;;;;;;;1.00;1.00;;;;;2.40;97113.00;;;;5035332;28;20196;-69
2023/01/04 00:26:49;;;;;;;1.00;1.00;;;;;2.40;97102.00;;;;5034778;28;20200;-69
2023/01/04 00:29:16;;;;;;;1.07;0.97;;;;;2.40;97093.00;;;;5034635;28;20200;-68
2023/01/04 00:31:44;;;;;;;0.87;0.87;;;;;2.40;97090.00;;;;5035251;28;20236;-68
2023/01/04 00:34:15;;;;;;;0.93;0.93;;;;;2.30;97083.00;;;;5034991;28;20217;-67
2023/01/04 00:36:43;;;;;;;2.87;1.87;;;;;2.30;97089.00;;;;5034503;28;20188;-67
2023/01/04 00:39:14;;;;;;;0.90;0.90;;;;;2.30;97089.00;;;;5034712;28;20624;-68
2023/01/04 00:41:44;;;;;;;0.80;0.80;;;;;2.20;97093.00;;;;5034674;28;20177;-67
2023/01/04 00:44:12;;;;;;;1.33;1.23;;;;;2.20;97100.00;;;;5034146;28;20181;-67
2023/01/04 00:46:41;;;;;;;0.97;0.97;;;;;2.10;97093.00;;;;5034898;28;20667;-68
2023/01/04 00:49:11;;;;;;;1.33;1.33;;;;;2.10;97082.00;;;;5034220;28;20192;-68
2023/01/04 00:51:41;;;;;;;1.10;1.10;;;;;2.10;97079.00;;;;5034227;28;20196;-67
2023/01/04 00:54:13;;;;;;;0.73;0.73;;;;;2.10;97074.00;;;;5034734;28;20205;-67
2023/01/04 00:56:40;;;;;;;1.27;1.27;;;;;2.10;97071.00;;;;5034218;28;20239;-67
2023/01/04 00:59:07;;;;;;;1.70;1.60;;;;;2.10;97070.00;;;;5034262;28;20197;-67
2023/01/04 01:01:35;;;;;;;0.80;0.80;;;;;2.00;97059.00;;;;5034333;28;20668;-67
2023/01/04 01:04:04;;;;;;;1.50;1.27;;;;;2.00;97063.00;;;;5034004;28;20656;-66
2023/01/04 01:06:33;;;;;;;0.80;0.80;;;;;2.10;97060.00;;;;5034033;28;20254;-68
2023/01/04 01:09:03;;;;;;;4.23;2.50;;;;;2.00;97068.00;;;;5033927;28;20678;-67
2023/01/04 01:11:31;;;;;;;0.70;0.70;;;;;2.00;97066.00;;;;5034208;28;20200;-67
2023/01/04 01:13:59;;;;;;;1.00;1.00;;;;;1.90;97065.00;;;;5033773;28;20220;-67
2023/01/04 01:16:27;;;;;;;1.37;1.33;;;;;1.80;97053.00;;;;5033782;28;20196;-67
2023/01/04 01:18:54;;;;;;;1.73;1.63;;;;;1.90;97073.00;;;;5034184;28;20262;-67
2023/01/04 01:21:25;;;;;;;1.30;1.27;;;;;1.90;97068.00;;;;5033613;28;20212;-68
2023/01/04 01:23:54;;;;;;;1.40;1.30;;;;;1.80;97071.00;;;;5034005;28;20231;-67
2023/01/04 01:26:24;;;;;;;0.90;0.90;;;;;1.90;97062.00;;;;5033649;28;20204;-68
2023/01/04 01:28:52;;;;;;;1.00;1.00;;;;;1.90;97067.00;;;;5033688;28;20189;-68
2023/01/04 01:31:21;;;;;;;1.00;1.00;;;;;2.00;97072.00;;;;5033492;28;20585;-68
2023/01/04 01:33:50;;;;;;;0.93;0.93;;;;;2.00;97062.00;;;;5033404;28;20220;-67
2023/01/04 01:36:20;;;;;;;1.97;1.83;;;;;2.00;97068.00;;;;5033530;28;20193;-68
2023/01/04 01:38:48;;;;;;;1.23;1.20;;;;;2.00;97068.00;;;;5033523;28;20196;-68
2023/01/04 01:41:20;;;;;;;1.43;1.40;;;;;2.10;97068.00;;;;5033385;28;20224;-68
2023/01/04 01:43:54;;;;;;;0.80;0.80;;;;;2.10;97075.00;;;;5033642;28;20176;-67
2023/01/04 01:46:26;;;;;;;0.70;0.70;;;;;2.10;97078.00;;;;5033731;28;20185;-67
2023/01/04 01:48:58;;;;;;;0.70;0.70;;;;;2.00;97078.00;;;;5033371;28;20195;-67
2023/01/04 01:51:26;;;;;;;1.00;1.00;;;;;2.00;97074.00;;;;5062346;23;20350;-59
2023/01/04 01:53:58;;;;;;;0.80;0.80;;;;;2.00;97067.00;;;;5053013;28;20253;-58
2023/01/04 01:56:29;;;;;;;1.73;1.63;;;;;2.00;97060.00;;;;5053340;28;20237;-58
2023/01/04 01:58:59;;;;;;;0.93;0.93;;;;;2.00;97067.00;;;;5053057;28;20187;-58
2023/01/04 02:01:27;;;;;;;0.77;0.77;;;;;2.00;97052.00;;;;5053070;28;20212;-58
2023/01/04 02:03:55;;;;;;;1.03;1.03;;;;;2.00;97065.00;;;;5053256;28;20199;-58
2023/01/04 02:06:36;;;;;;;1.10;1.10;;;;;1.90;97065.00;;;;5052984;28;20246;-58
2023/01/04 02:09:03;;;;;;;0.80;0.80;;;;;1.90;97057.00;;;;5052985;28;20242;-58
2023/01/04 02:11:31;;;;;;;0.90;0.90;;;;;1.90;97055.00;;;;5052874;28;20226;-58
2023/01/04 02:17:01;;;;;;;1.27;1.27;;;;;2.00;97063.00;;;;5053164;28;20547;-58
2023/01/04 02:19:56;;;;;;;1.00;1.00;;;;;1.90;97045.00;;;;5053082;28;20180;-59
2023/01/04 02:22:50;;;;;;;1.13;1.13;;;;;1.90;97042.00;;;;5052804;28;20200;-58
2023/01/04 02:25:39;;;;;;;0.80;0.80;;;;;1.80;97043.00;;;;5050486;28;20265;-58
2023/01/04 02:28:16;;;;;;;0.90;0.90;;;;;2.00;97036.00;;;;5035020;28;20195;-58
2023/01/04 02:31:13;;;;;;;0.90;0.90;;;;;2.20;97035.00;;;;5052863;28;20212;-58
2023/01/04 02:33:49;;;;;;;0.70;0.70;;;;;2.40;97034.00;;;;5052603;28;20211;-58
2023/01/04 02:36:24;;;;;;;1.03;0.93;;;;;2.50;97029.00;;;;5052765;28;20187;-58
2023/01/04 02:39:12;;;;;;;0.70;0.70;;;;;2.30;97025.00;;;;5052711;28;20184;-58
2023/01/04 02:41:44;;;;;;;1.07;1.00;;;;;2.20;97032.00;;;;5052608;28;20767;-58
2023/01/04 02:47:06;;;;;;;0.87;0.87;;;;;2.10;97013.00;;;;5052851;28;20616;-58
2023/01/04 02:52:19;;;;;;;1.03;0.93;;;;;2.10;97014.00;;;;5052562;28;20184;-58
2023/01/04 02:54:47;;;;;;;1.17;1.17;;;;;2.30;97016.00;;;;5052413;28;20287;-58
2023/01/04 02:57:31;;;;;;;1.03;1.03;;;;;2.20;97000.00;;;;5052784;28;20230;-58
2023/01/04 03:00:20;;;;;;;1.50;1.20;;;;;2.10;96992.00;;;;5052740;28;20219;-58
2023/01/04 03:06:15;;;;;;;1.10;1.10;;;;;2.00;96990.00;;;;5052335;28;20184;-58
2023/01/04 03:09:01;;;;;;;1.13;1.13;;;;;2.10;96987.00;;;;5055262;28;20177;-58
2023/01/04 03:14:28;;;;;;;0.90;0.90;;;;;2.00;96997.00;;;;5055918;28;20207;-58
2023/01/04 03:16:56;;;;;;;1.00;1.00;;;;;2.10;97011.00;;;;5056098;28;20551;-58
2023/01/04 03:35:21;;;;;;;0.90;0.90;;;;;2.20;96985.00;;;;5055174;28;20693;-58
2023/01/04 03:36:27;;;;;;;1.10;1.00;;;;;2.00;97007.00;;;;5055603;28;20191;-58
2023/01/04 03:50:28;;;;;;;0.77;0.77;;;;;2.60;96979.00;;;;5055328;28;20223;-58
2023/01/04 03:52:59;;;;;;;1.23;0.80;;;;;2.50;96969.00;;;;5055198;28;20631;-58
2023/01/04 03:55:28;;;;;;;1.37;1.27;;;;;2.30;96971.00;;;;5055765;28;20273;-58
2023/01/04 03:57:57;;;;;;;0.63;0.63;;;;;2.50;96968.00;;;;5055981;28;20230;-58
2023/01/04 04:00:24;;;;;;;0.97;0.77;;;;;2.40;96963.00;;;;5055078;28;20223;-58
2023/01/04 04:02:52;;;;;;;0.90;0.90;;;;;2.50;96959.00;;;;5055360;28;20191;-58
2023/01/04 04:08:27;;;;;;;1.13;1.13;;;;;2.40;96951.00;;;;5055277;28;20187;-58
2023/01/04 04:10:56;;;;;;;0.97;0.97;;;;;2.50;96953.00;;;;5055170;28;20555;-58
2023/01/04 04:13:24;;;;;;;0.70;0.70;;;;;2.60;96949.00;;;;5054833;28;20254;-58
2023/01/04 04:15:53;;;;;;;1.30;1.20;;;;;2.60;96940.00;;;;5054823;28;20200;-58
2023/01/04 04:18:21;;;;;;;0.87;0.87;;;;;2.70;96952.00;;;;5036436;28;20198;-58
2023/01/04 04:20:48;;;;;;;1.03;1.03;;;;;2.60;96953.00;;;;5054402;28;20214;-58
2023/01/04 04:23:17;;;;;;;0.70;0.70;;;;;2.50;96970.00;;;;5055195;28;20192;-58
2023/01/04 04:25:45;;;;;;;10.97;1.20;;;;;2.40;96961.00;;;;5054657;28;20195;-62
2023/01/04 04:28:12;;;;;;;1.60;0.93;;;;;2.50;96945.00;;;;5054875;28;20214;-58
2023/01/04 04:30:39;;;;;;;0.60;0.60;;;;;2.60;96937.00;;;;5054602;28;20724;-58
2023/01/04 04:33:07;;;;;;;0.70;0.70;;;;;2.60;96934.00;;;;5054432;28;20199;-58
2023/01/04 04:35:34;;;;;;;0.97;0.97;;;;;2.70;96929.00;;;;5054583;28;20207;-58
2023/01/04 04:38:02;;;;;;;1.10;1.10;;;;;2.70;96924.00;;;;5054433;28;20276;-58
2023/01/04 04:43:15;;;;;;;1.77;1.37;;;;;2.80;96927.00;;;;5054629;28;20682;-58
2023/01/04 04:45:43;;;;;;;1.10;1.10;;;;;2.90;96935.00;;;;5054254;28;20195;-59
2023/01/04 04:48:10;;;;;;;1.00;1.00;;;;;2.90;96925.00;;;;5054504;28;20196;-58
2023/01/04 04:50:38;;;;;;;0.93;0.93;;;;;3.00;96917.00;;;;5054094;28;20292;-58
2023/01/04 04:53:05;;;;;;;0.90;0.90;;;;;3.10;96913.00;;;;5054067;28;20195;-62
2023/01/04 04:55:34;;;;;;;0.70;0.70;;;;;3.20;96915.00;;;;5053985;28;20219;-58
2023/01/04 04:58:01;;;;;;;1.57;1.00;;;;;3.20;96914.00;;;;5053969;28;20195;-60
2023/01/04 05:00:29;;;;;;;0.90;0.90;;;;;3.00;96923.00;;;;5053907;28;20223;-58
2023/01/04 05:02:59;;;;;;;0.73;0.73;;;;;3.20;96920.00;;;;5053885;28;20192;-58
2023/01/04 05:05:26;;;;;;;0.70;0.70;;;;;3.20;96925.00;;;;5053895;28;20718;-58
2023/01/04 05:07:54;;;;;;;0.70;0.70;;;;;3.40;96926.00;;;;5054071;28;20264;-59
2023/01/04 05:10:21;;;;;;;1.63;1.20;;;;;3.10;96925.00;;;;5053986;28;20668;-60
2023/01/04 05:13:04;;;;;;;1.17;1.17;;;;;3.20;96917.00;;;;5053789;28;20196;-58
2023/01/04 05:15:34;;;;;;;0.70;0.70;;;;;3.30;96911.00;;;;5053979;28;20223;-58
2023/01/04 05:18:02;;;;;;;0.80;0.80;;;;;3.40;96920.00;;;;5054190;28;20214;-58
2023/01/04 05:20:29;;;;;;;0.60;0.60;;;;;3.30;96921.00;;;;5053613;28;20215;-58
2023/01/04 05:22:56;;;;;;;0.80;0.80;;;;;3.30;96908.00;;;;5053597;28;20192;-58
2023/01/04 05:25:24;;;;;;;0.70;0.70;;;;;3.30;96926.00;;;;5053560;28;20188;-58
2023/01/04 05:27:53;;;;;;;0.60;0.60;;;;;3.50;96921.00;;;;5054033;28;20234;-58
2023/01/04 05:33:06;;;;;;;0.80;0.80;;;;;3.50;96912.00;;;;5053685;28;20184;-58
2023/01/04 05:35:33;;;;;;;0.77;0.77;;;;;3.50;96923.00;;;;5053329;28;20220;-58
2023/01/04 05:38:01;;;;;;;0.93;0.93;;;;;3.50;96903.00;;;;5053285;28;20199;-58
2023/01/04 05:40:28;;;;;;;0.67;0.67;;;;;3.60;96907.00;;;;5053217;28;20217;-58
2023/01/04 05:42:57;;;;;;;0.70;0.70;;;;;3.60;96911.00;;;;5053274;28;20196;-58
2023/01/04 05:45:25;;;;;;;0.70;0.70;;;;;3.60;96910.00;;;;5053237;28;20189;-57
2023/01/04 05:47:54;;;;;;;4.03;1.23;;;;;3.70;96914.00;;;;5053475;28;20192;-58
2023/01/04 05:50:23;;;;;;;0.73;0.73;;;;;3.70;96907.00;;;;5053138;28;20216;-58
2023/01/04 05:52:50;;;;;;;1.80;1.37;;;;;3.70;96912.00;;;;5053106;28;20207;-58
2023/01/04 05:55:18;;;;;;;1.13;1.13;;;;;3.70;96902.00;;;;5053349;28;20224;-58
2023/01/04 05:57:45;;;;;;;2.37;0.77;;;;;3.70;96912.00;;;;5053794;28;20598;-58
2023/01/04 06:00:15;;;;;;;2.10;1.00;;;;;3.70;96882.00;;;;5053198;28;20243;-57
2023/01/04 06:02:43;;;;;;;0.97;0.97;;;;;3.80;96883.00;;;;5052993;28;20195;-58
2023/01/04 06:05:12;;;;;;;0.90;0.90;;;;;3.60;96891.00;;;;5052952;28;20192;-58
2023/01/04 06:07:40;;;;;;;1.03;1.03;;;;;3.70;96885.00;;;;5053222;28;20659;-58
2023/01/04 06:10:09;;;;;;;0.70;0.70;;;;;3.70;96894.00;;;;5053402;28;20220;-58
2023/01/04 06:12:37;;;;;;;0.70;0.70;;;;;3.70;96884.00;;;;5052938;28;20196;-58
2023/01/04 06:15:06;;;;;;;0.60;0.60;;;;;3.70;96882.00;;;;5052784;28;20212;-58
2023/01/04 06:17:35;;;;;;;0.60;0.60;;;;;3.70;96884.00;;;;5052821;28;20191;-58
2023/01/04 06:20:02;;;;;;;0.70;0.70;;;;;3.80;96896.00;;;;5052723;28;20212;-58
2023/01/04 06:22:31;;;;;;;0.60;0.60;;;;;3.80;96892.00;;;;5052794;28;20188;-58
2023/01/04 06:24:59;;;;;;;0.63;0.63;;;;;3.80;96899.00;;;;5052763;28;20192;-58
2023/01/04 06:27:26;;;;;;;0.60;0.60;;;;;4.00;96899.00;;;;5052774;28;20250;-58
2023/01/04 06:29:54;;;;;;;0.67;0.67;;;;;4.10;96886.00;;;;5052704;28;20216;-58
2023/01/04 06:32:21;;;;;;;1.37;1.27;;;;;4.20;96889.00;;;;5052923;28;20475;-58
2023/01/04 06:34:50;;;;;;;1.47;1.37;;;;;4.20;96882.00;;;;5052587;28;20220;-58
2023/01/04 06:37:17;;;;;;;0.60;0.60;;;;;4.20;96884.00;;;;5053169;28;20196;-58
2023/01/04 06:39:45;;;;;;;0.60;0.60;;;;;4.30;96887.00;;;;5052564;28;20199;-57
2023/01/04 06:44:53;;;;;;;0.70;0.70;;;;;4.30;96893.00;;;;5055551;28;20196;-58
2023/01/04 06:47:21;;;;;;;1.13;1.07;;;;;4.50;96883.00;;;;5056408;28;20196;-58
2023/01/04 06:49:50;;;;;;;1.47;1.37;;;;;4.50;96884.00;;;;5056416;28;20330;-58
2023/01/04 06:52:17;;;;;;;1.00;1.00;;;;;4.50;96877.00;;;;5056358;28;20188;-58
2023/01/04 06:54:44;;;;;;;0.70;0.70;;;;;4.60;96881.00;;;;5056411;28;20575;-58
2023/01/04 06:57:13;;;;;;;2.27;1.43;;;;;4.60;96879.00;;;;5056120;28;20188;-58
2023/01/04 06:59:40;;;;;;;0.70;0.70;;;;;4.50;96871.00;;;;5056346;28;20254;-58
2023/01/04 07:02:08;;;;;;;0.67;0.67;;;;;4.50;96868.00;;;;5056103;28;20195;-57
2023/01/04 07:04:35;;;;;;;0.70;0.70;;;;;4.50;96864.00;;;;5056076;28;20195;-58
2023/01/04 07:07:04;;;;;;;0.77;0.77;;;;;4.50;96871.00;;;;5056328;28;20192;-58
2023/01/04 07:09:31;;;;;;;0.80;0.80;;;;;4.60;96885.00;;;;5055888;28;20199;-58
2023/01/04 07:11:59;;;;;;;0.93;0.93;;;;;4.60;96878.00;;;;5055955;28;20659;-58
2023/01/04 07:14:26;;;;;;;0.60;0.60;;;;;4.70;96868.00;;;;5055811;28;20216;-58
2023/01/04 07:16:53;;;;;;;0.60;0.60;;;;;4.80;96875.00;;;;5055822;28;20246;-58
2023/01/04 07:19:21;;;;;;;0.60;0.60;;;;;4.80;96882.00;;;;5055791;28;20203;-58
2023/01/04 07:21:48;;;;;;;0.60;0.60;;;;;4.90;96880.00;;;;5055670;28;20242;-58
2023/01/04 07:24:17;;;;;;;0.87;0.87;;;;;4.70;96879.00;;;;5055686;28;20285;-58
2023/01/04 07:26:44;;;;;;;0.60;0.60;;;;;4.80;96871.00;;;;5055660;28;20192;-58
2023/01/04 07:29:15;;;;;;;0.60;0.60;;;;;4.70;96874.00;;;;5055608;28;20203;-61
2023/01/04 07:31:44;;;;;;;0.60;0.60;;;;;4.90;96875.00;;;;5055602;28;20212;-59
2023/01/04 07:34:13;;;;;;;0.50;0.50;;;;;4.90;96870.00;;;;5056007;28;20250;-57
2023/01/04 07:36:40;;;;;;;0.50;0.50;;;;;4.80;96875.00;;;;5056515;28;20193;-58
2023/01/04 07:39:11;;;;;;;0.60;0.60;;;;;4.80;96870.00;;;;5056166;28;20241;-58
2023/01/04 07:41:41;;;;;;;0.77;0.77;;;;;4.90;96870.00;;;;5055343;28;20299;-58
2023/01/04 07:44:10;;;;;;;2.67;1.43;;;;;4.90;96858.00;;;;5055437;28;20187;-60
2023/01/04 07:46:38;;;;;;;0.50;0.50;;;;;4.90;96867.00;;;;5055595;28;20221;-58
2023/01/04 07:49:06;;;;;;;0.60;0.60;;;;;4.80;96860.00;;;;5037318;28;20242;-58
2023/01/04 07:51:34;;;;;;;0.60;0.60;;;;;4.80;96851.00;;;;5055046;28;20591;-58
2023/01/04 07:54:01;;;;;;;0.50;0.50;;;;;4.90;96850.00;;;;5054957;28;20234;-58
2023/01/04 07:56:29;;;;;;;1.30;0.97;;;;;4.80;96848.00;;;;5054994;28;20216;-58
2023/01/04 07:58:58;;;;;;;0.70;0.70;;;;;4.90;96843.00;;;;5055008;28;20195;-62
2023/01/04 08:01:26;;;;;;;0.60;0.60;;;;;4.90;96841.00;;;;5055023;28;20299;-57
2023/01/04 08:03:54;;;;;;;0.60;0.60;;;;;4.90;96847.00;;;;5038076;28;20636;-58
2023/01/04 08:06:22;;;;;;;3.53;0.97;;;;;4.90;96841.00;;;;5055421;28;20192;-58
2023/01/04 08:08:50;;;;;;;0.60;0.60;;;;;4.90;96834.00;;;;5055143;28;20666;-58
2023/01/04 08:11:21;;;;;;;0.50;0.50;;;;;4.90;96839.00;;;;5054929;28;20612;-58
2023/01/04 08:13:48;;;;;;;0.60;0.60;;;;;5.10;96831.00;;;;5055455;28;20223;-57
2023/01/04 08:16:22;;;;;;;0.67;0.67;;;;;5.10;96829.00;;;;5055004;28;20229;-58
2023/01/04 08:18:53;;;;;;;0.60;0.60;;;;;5.30;96831.00;;;;5033098;28;20675;-58
2023/01/04 08:21:21;;;;;;;0.60;0.60;;;;;5.10;96824.00;;;;5059300;28;20751;-58
2023/01/04 08:23:49;;;;;;;0.50;0.50;;;;;5.20;96829.00;;;;5067234;28;20199;-58
2023/01/04 08:26:17;;;;;;;2.47;1.37;;;;;5.10;96848.00;;;;5059959;28;20200;-57
2023/01/04 08:28:45;;;;;;;0.63;0.63;;;;;5.20;96826.00;;;;5067495;28;20567;-57
2023/01/04 08:31:14;;;;;;;0.60;0.60;;;;;5.20;96829.00;;;;5051734;28;20219;-57
2023/01/04 08:33:44;;;;;;;0.60;0.60;;;;;5.30;96831.00;;;;5052343;28;20198;-57
2023/01/04 08:36:17;;;;;;;0.70;0.70;;;;;5.30;96851.00;;;;5055332;28;20211;-57
2023/01/04 08:38:44;;;;;;;0.60;0.60;;;6.10;91.30;5.30;96835.00;;;;5049023;28;20189;-57
2023/01/04 08:41:12;;;;;;;0.60;0.60;;;;;5.30;96826.00;;;;5051413;28;20212;-57
2023/01/04 08:43:40;;;;;;;0.80;0.80;;;;;5.30;96801.00;;;;5050726;28;20205;-58
2023/01/04 08:46:07;;;;;;;0.70;0.70;;;;;5.30;96830.00;;;;5051233;28;20193;-57
2023/01/04 08:48:35;;;;;;;0.50;0.50;;;6.20;91.20;5.30;96809.00;;;;5051984;28;20203;-57
2023/01/04 08:51:07;;;;;;;0.60;0.60;;;;;5.40;96814.00;;;;5051132;28;20216;-57
2023/01/04 08:53:35;;;;;;;1.10;1.10;;;6.20;91.60;5.30;96815.00;;;;5052002;28;20192;-57
2023/01/04 08:56:02;;;;;;;0.97;0.97;;;;;5.40;96815.00;;;;5051089;28;20223;-58
2023/01/04 08:58:31;;;;;;;0.60;0.60;;;;;5.50;96811.00;;;;5051983;28;20258;-57
2023/01/04 09:01:01;;;;;;;5.97;1.40;;;;;5.60;96807.00;;;;5051020;28;20222;-58
2023/01/04 09:03:29;;;;;;;0.60;0.60;;;;;5.40;96794.00;;;;5051855;28;20224;-58
2023/01/04 09:06:05;;;;;;;0.60;0.60;;;;;5.50;96805.00;;;;5065425;28;20190;-58
2023/01/04 09:08:33;;;;;;;0.60;0.60;;;;;5.60;96810.00;;;;5071646;28;20223;-57
2023/01/04 09:11:05;;;;;;;0.60;0.60;;;;;5.70;96824.00;;;;5071382;28;20577;-59
2023/01/04 09:13:32;;;;;;;1.00;0.93;;;;;5.70;96820.00;;;;5071208;28;20196;-57
2023/01/04 09:16:01;;;;;;;0.60;0.60;;;;;5.80;96810.00;;;;5070988;28;20211;-57
2023/01/04 09:18:29;;;;;;;0.50;0.50;;;;;5.80;96799.00;;;;5070389;28;20659;-58
2023/01/04 09:20:57;;;;;;;0.60;0.60;;;;;5.80;96817.00;;;;5071002;28;20712;-57
2023/01/04 09:23:27;;;;;;;0.80;0.80;;;;;5.90;96812.00;;;;5070976;28;20195;-57
2023/01/04 09:25:55;;;;;;;0.60;0.60;;;;;5.80;96802.00;;;;5070603;28;20188;-58
2023/01/04 09:28:22;;;;;;;0.60;0.60;;;;;5.80;96823.00;;;;5071224;28;20203;-57
2023/01/04 09:30:50;;;;;;;0.63;0.63;;;;;5.90;96810.00;;;;5070458;28;20218;-57
2023/01/04 09:33:17;;;;;;;0.50;0.50;;;;;6.00;96829.00;;;;5071418;28;20195;-57
2023/01/04 09:35:45;;;;;;;0.50;0.50;;;;;6.00;96837.00;;;;5050959;28;20224;-57
2023/01/04 09:38:12;;;;;;;2.33;1.13;;;;;6.10;96832.00;;;;5051020;28;20204;-57
2023/01/04 09:40:54;;;;;;;0.60;0.60;;;;;6.30;96825.00;;;;5050639;28;20223;-57
2023/01/04 09:43:23;;;;;;;2.37;0.90;;;;;6.30;96821.00;;;;5059468;28;20597;-57
2023/01/04 09:45:54;;;;;;;0.60;0.60;;;;;6.30;96832.00;;;;5069502;28;20232;-57
2023/01/04 09:48:24;;;;;;;0.63;0.63;;;;;6.30;96831.00;;;;5071159;28;20310;-57
2023/01/04 09:50:54;;;;;;;1.87;0.73;;;;;6.30;96823.00;;;;5070571;28;20236;-57
2023/01/04 09:53:27;;;;;;;0.90;0.90;;;;;6.40;96832.00;;;;5052587;28;20612;-57
2023/01/04 09:56:01;;;;;;;0.70;0.70;;;;;6.30;96820.00;;;;5070555;28;20252;-57
2023/01/04 09:58:32;;;;;;;0.80;0.80;;;;;6.40;96813.00;;;;5046154;28;20645;-57
2023/01/04 10:01:04;;;;;;;0.70;0.70;;;;;6.50;96816.00;;;;5046210;28;20226;-57
2023/01/04 10:03:34;;;;;;;0.60;0.60;;;;;6.50;96801.00;;;;5050618;28;20184;-57
2023/01/04 10:06:03;;;;;;;0.50;0.50;;;;;6.50;96795.00;;;;5050536;28;20257;-57
2023/01/04 10:08:31;;;;;;;0.80;0.80;;;;;6.70;96805.00;;;;5049124;28;20210;-57
2023/01/04 10:11:10;;;;;;;0.90;0.90;;;;;6.70;96811.00;;;;5050361;28;20219;-57
2023/01/04 10:13:55;;;;;;;0.57;0.57;;;;;6.60;96801.00;;;;5054132;28;20194;-57
2023/01/04 10:16:40;;;;;;;0.70;0.70;;;;;6.60;96801.00;;;;5046361;28;20218;-57
2023/01/04 10:19:23;;;;;;;0.60;0.60;;;;;6.80;96798.00;;;;5054866;28;20192;-58
2023/01/04 10:21:54;;;;;;;0.53;0.53;;;;;6.60;96801.00;;;;5054424;28;20218;-57
2023/01/04 10:24:38;;;;;;;0.83;0.83;;;;;6.80;96785.00;;;;5050625;28;20207;-57
2023/01/04 10:27:13;;;;;;;0.50;0.50;;;;;6.70;96792.00;;;;5069550;28;21717;-57
2023/01/04 10:29:53;;;;;;;0.70;0.70;;;;;6.80;96781.00;;;;5054805;28;20650;-57
2023/01/04 10:32:34;;;;;;;0.83;0.83;;;;;6.80;96785.00;;;;5050227;28;20199;-58
2023/01/04 10:35:13;;;;;;;0.70;0.70;;;;;6.70;96801.00;;;;5054642;28;20270;-57
2023/01/04 10:37:40;;;;;;;0.60;0.60;;;;;6.70;96786.00;;;;5053922;28;20188;-58
2023/01/04 10:40:15;;;;;;;0.60;0.60;;;;;6.80;96753.00;;;;5068096;28;20222;-57
2023/01/04 10:42:52;;;;;;;0.60;0.60;;;;;6.80;96757.00;;;;5068953;28;20640;-57
2023/01/04 10:45:22;;;;;;;0.60;0.60;;;;;6.90;96751.00;;;;5060143;28;20194;-57
2023/01/04 10:48:01;;;;;;;0.50;0.50;;;;;6.90;96748.00;;;;5061688;28;20210;-57
2023/01/04 10:50:36;;;;;;;0.60;0.60;;;;;6.90;96741.00;;;;5054152;28;20236;-57
2023/01/04 10:53:07;;;;;;;0.70;0.70;;;;;7.00;96734.00;;;;5053573;28;20194;-56
2023/01/04 10:55:40;;;;;;;0.60;0.60;;;;;6.90;96757.00;;;;5053914;28;20268;-57
2023/01/04 10:58:17;;;;;;;0.60;0.60;;;;;7.00;96736.00;;;;5053660;28;20192;-56
2023/01/04 11:00:49;;;;;;;0.73;0.73;;;;;7.20;96728.00;;;;5053785;28;20269;-56
2023/01/04 11:03:22;;;;;;;0.63;0.63;;;;;7.20;96729.00;;;;5053798;28;20249;-56
2023/01/04 11:05:54;;;;;;;0.60;0.60;;;;;7.30;96742.00;;;;5053762;28;20241;-56
2023/01/04 11:08:26;;;;;;;0.70;0.70;;;;;7.30;96729.00;;;;5053753;28;20238;-56
2023/01/04 11:10:57;;;;;;;0.60;0.60;;;;;7.40;96727.00;;;;5053528;28;20227;-56
2023/01/04 11:13:26;;;;;;;0.60;0.60;;;;;7.40;96725.00;;;;5048014;28;20672;-56
2023/01/04 11:15:53;;;;;;;0.40;0.40;;;;;7.40;96716.00;;;;5053355;28;20759;-56
2023/01/04 11:18:21;;;;;;;0.50;0.50;;;;;7.40;96720.00;;;;5053336;28;20211;-56
2023/01/04 11:20:48;;;;;;;0.83;0.83;;;;;7.40;96728.00;;;;5053365;28;20257;-56
2023/01/04 11:23:17;;;;;;;2.83;2.10;;;;;7.50;96711.00;;;;5053323;28;20796;-56
2023/01/04 11:25:49;;;;;;;6.40;1.27;;;;;7.50;96714.00;;;;5053336;28;20215;-57
2023/01/04 11:28:21;;;;;;;0.60;0.60;;;;;7.30;96703.00;;;;5052796;28;20542;-56
2023/01/04 11:30:58;;;;;;;0.57;0.57;;;;;7.40;96707.00;;;;5053296;28;20281;-57
2023/01/04 11:33:26;;;;;;;0.50;0.50;;;;;7.40;96696.00;;;;5056433;28;20183;-60
2023/01/04 11:35:55;;;;;;;0.50;0.50;;;;;7.50;96709.00;;;;5064694;28;20328;-60
2023/01/04 11:38:26;;;;;;;0.60;0.60;;;;;7.60;96702.00;;;;5053074;28;20192;-59
2023/01/04 11:41:01;;;;;;;0.70;0.70;;;;;7.40;96698.00;;;;5067294;28;20219;-60
2023/01/04 11:43:31;;;;;;;0.60;0.60;;;;;7.50;96701.00;;;;5048543;28;20721;-60
2023/01/04 11:46:02;;;;;;;0.53;0.53;;;;;7.50;96690.00;;;;5054437;28;20207;-59
2023/01/04 11:48:36;;;;;;;0.60;0.60;;;;;7.50;96694.00;;;;5072976;28;20202;-58
2023/01/04 11:51:05;;;;;;;0.60;0.60;;;;;7.40;96696.00;;;;5064301;28;20246;-57
2023/01/04 11:53:35;;;;;;;0.60;0.60;;;;;7.50;96686.00;;;;5052770;28;20203;-57
2023/01/04 11:56:19;;;;;;;0.50;0.50;;;;;7.50;96688.00;;;;5052413;28;20212;-57
2023/01/04 11:59:04;;;;;;;0.83;0.83;;;;;7.70;96686.00;;;;5052743;28;20709;-57
2023/01/04 12:01:34;;;;;;;0.50;0.50;;;;;7.60;96696.00;;;;5034384;28;20219;-57
2023/01/04 12:04:04;;;;;;;0.70;0.70;;;;;7.60;96691.00;;;;5060487;28;20188;-57
2023/01/04 12:06:37;;;;;;;1.53;1.43;;;;;7.60;96690.00;;;;5071008;28;20198;-57
2023/01/04 12:09:05;;;;;;;0.60;0.60;;;;;7.60;96690.00;;;;5072974;28;20188;-57
2023/01/04 12:11:37;;;;;;;0.60;0.60;;;;;7.80;96697.00;;;;5072376;28;20230;-57
2023/01/04 12:14:14;;;;;;;0.50;0.50;;;;;7.80;96695.00;;;;5072881;28;20199;-57
2023/01/04 12:16:51;;;;;;;0.50;0.50;;;;;7.80;96686.00;;;;5048220;28;20211;-57
2023/01/04 12:19:21;;;;;;;0.60;0.60;;;;;7.80;96691.00;;;;5052866;28;20188;-57
2023/01/04 12:21:51;;;;;;;0.90;0.90;;;;;7.90;96684.00;;;;5051795;28;20671;-57
2023/01/04 12:24:22;;;;;;;0.60;0.60;;;;;7.90;96687.00;;;;5052609;28;20215;-57
2023/01/04 12:26:51;;;;;;;0.60;0.60;;;;;7.90;96689.00;;;;5051923;28;20554;-57
2023/01/04 12:30:00;;;;;;;0.50;0.50;;;;;8.00;96677.00;;;;5052459;28;20234;-57
2023/01/04 12:32:44;;;;;;;0.70;0.70;;;;;7.90;96680.00;;;;5040044;28;20207;-57
2023/01/04 12:36:01;;;;;;;0.50;0.50;;;;;7.90;96682.00;;;;5072059;28;20191;-57
2023/01/04 12:38:58;;;;;;;0.60;0.60;;;;;8.00;96681.00;;;;5072022;28;20196;-57
2023/01/04 12:42:17;;;;;;;0.60;0.60;;;;;7.90;96675.00;;;;5070965;28;20215;-57
2023/01/04 12:45:16;;;;;;;0.60;0.60;;;;;8.00;96672.00;;;;5072221;28;20639;-57
2023/01/04 12:50:53;;;;;;;0.60;0.60;;;;;8.10;96663.00;;;;5072062;28;20223;-57
2023/01/04 12:53:49;;;;;;;0.60;0.60;;;;;8.10;96677.00;;;;5071170;28;20209;-57
2023/01/04 12:56:16;;;;;;;0.60;0.60;;;;;8.20;96672.00;;;;5050002;28;20356;-57
2023/01/04 12:59:09;;;;;;;0.60;0.60;;;;;8.20;96657.00;;;;5051434;28;20211;-57
2023/01/04 13:01:38;;;;;;;0.77;0.77;;;;;8.20;96655.00;;;;5050507;28;20239;-56
2023/01/04 13:04:28;;;;;;;0.80;0.80;;;;;8.40;96643.00;;;;5051217;28;20204;-57
2023/01/04 13:07:00;;;;;;;0.50;0.50;;;;;8.30;96638.00;;;;5032322;28;20196;-57
2023/01/04 13:09:32;;;;;;;0.60;0.60;;;;;8.30;96641.00;;;;5051714;28;20188;-59
2023/01/04 13:12:14;;;;;;;0.70;0.70;;;;;8.40;96651.00;;;;5051506;28;20181;-57
2023/01/04 13:14:47;;;;;;;0.60;0.60;;;;;8.30;96646.00;;;;5051156;28;20263;-57
2023/01/04 13:17:20;;;;;;;0.90;0.90;;;;;8.40;96644.00;;;;5051381;28;20345;-57
2023/01/04 13:19:48;;;;;;;0.50;0.50;;;;;8.30;96664.00;;;;5050474;28;20203;-57
2023/01/04 13:22:23;;;;;;;0.80;0.80;;;;;8.30;96655.00;;;;5050807;28;20277;-58
2023/01/04 13:24:51;;;;;;;0.50;0.50;;;;;8.30;96653.00;;;;5051625;28;20187;-58
2023/01/04 13:27:21;;;;;;;0.60;0.60;;;;;8.20;96633.00;;;;5046157;28;20188;-58
2023/01/04 13:29:50;;;;;;;0.50;0.50;;;;;8.30;96631.00;;;;5050145;28;20231;-58
2023/01/04 13:32:23;;;;;;;0.53;0.53;;;;;8.40;96635.00;;;;5050559;28;20208;-58
2023/01/04 13:34:55;;;;;;;0.50;0.50;;;;;8.40;96630.00;;;;5051516;28;20211;-58
2023/01/04 13:37:27;;;;;;;0.50;0.50;;;;;8.40;96626.00;;;;5050582;28;20228;-58
2023/01/04 13:40:11;;;;;;;0.73;0.73;;;;;8.40;96631.00;;;;5051277;28;20226;-58
2023/01/04 13:42:42;;;;;;;0.57;0.57;;;;;8.20;96635.00;;;;5045956;28;20184;-58